sensor_id;sensor_type;location;lat;lon;timestamp;P1;durP1;ratioP1;P2;durP2;ratioP2
6131;SDS011;3097;42.692;23.278;2023-04-03T00:01:16;7.07;;;5.67;;
6131;SDS011;3097;42.692;23.278;2023-04-03T00:03:42;9.50;;;6.43;;
6131;SDS011;3097;42.692;23.278;2023-04-03T00:06:08;8.30;;;5.63;;
6131;SDS011;3097;42.692;23.278;2023-04-03T00:08:36;12.30;;;6.73;;
6131;SDS011;3097;42.692;23.278;2023-04-03T00:11:02;7.00;;;5.77;;
6131;SDS011;3097;42.692;23.278;2023-04-03T00:13:28;10.33;;;5.73;;
6131;SDS011;3097;42.692;23.278;2023-04-03T00:15:54;9.20;;;6.30;;
6131;SDS011;3097;42.692;23.278;2023-04-03T00:18:19;8.63;;;6.47;;
6131;SDS011;3097;42.692;23.278;2023-04-03T00:20:45;7.80;;;5.90;;
6131;SDS011;3097;42.692;23.278;2023-04-03T00:23:11;10.43;;;7.03;;
6131;SDS011;3097;42.692;23.278;2023-04-03T00:25:36;11.80;;;6.97;;
6131;SDS011;3097;42.692;23.278;2023-04-03T00:28:02;12.40;;;6.63;;
6131;SDS011;3097;42.692;23.278;2023-04-03T00:30:29;9.43;;;6.53;;
6131;SDS011;3097;42.692;23.278;2023-04-03T00:32:54;11.27;;;7.30;;
6131;SDS011;3097;42.692;23.278;2023-04-03T00:35:20;11.63;;;7.10;;
6131;SDS011;3097;42.692;23.278;2023-04-03T00:37:47;11.30;;;6.03;;
6131;SDS011;3097;42.692;23.278;2023-04-03T00:40:14;8.73;;;6.70;;
6131;SDS011;3097;42.692;23.278;2023-04-03T00:42:41;9.23;;;7.13;;
6131;SDS011;3097;42.692;23.278;2023-04-03T00:47:48;10.23;;;6.70;;
6131;SDS011;3097;42.692;23.278;2023-04-03T00:50:14;11.03;;;6.90;;
6131;SDS011;3097;42.692;23.278;2023-04-03T00:52:40;8.80;;;6.87;;
6131;SDS011;3097;42.692;23.278;2023-04-03T00:55:06;7.97;;;5.50;;
6131;SDS011;3097;42.692;23.278;2023-04-03T00:57:33;11.77;;;7.47;;
6131;SDS011;3097;42.692;23.278;2023-04-03T01:00:04;15.97;;;9.03;;
6131;SDS011;3097;42.692;23.278;2023-04-03T01:02:34;18.13;;;9.67;;
6131;SDS011;3097;42.692;23.278;2023-04-03T01:05:00;19.33;;;9.67;;
6131;SDS011;3097;42.692;23.278;2023-04-03T01:07:27;17.17;;;10.50;;
6131;SDS011;3097;42.692;23.278;2023-04-03T01:09:58;18.50;;;9.97;;
6131;SDS011;3097;42.692;23.278;2023-04-03T01:14:52;16.23;;;8.77;;
6131;SDS011;3097;42.692;23.278;2023-04-03T01:17:39;21.53;;;9.23;;
6131;SDS011;3097;42.692;23.278;2023-04-03T01:25:37;15.77;;;9.10;;
6131;SDS011;3097;42.692;23.278;2023-04-03T01:28:08;16.47;;;9.07;;
6131;SDS011;3097;42.692;23.278;2023-04-03T01:33:22;16.70;;;9.10;;
6131;SDS011;3097;42.692;23.278;2023-04-03T01:35:47;15.93;;;9.17;;
6131;SDS011;3097;42.692;23.278;2023-04-03T01:38:13;8.57;;;6.50;;
6131;SDS011;3097;42.692;23.278;2023-04-03T01:40:38;10.57;;;6.83;;
6131;SDS011;3097;42.692;23.278;2023-04-03T01:43:05;15.60;;;6.53;;
6131;SDS011;3097;42.692;23.278;2023-04-03T01:45:30;10.93;;;6.83;;
6131;SDS011;3097;42.692;23.278;2023-04-03T01:47:56;8.00;;;4.70;;
6131;SDS011;3097;42.692;23.278;2023-04-03T01:50:21;8.27;;;5.40;;
6131;SDS011;3097;42.692;23.278;2023-04-03T01:52:46;4.77;;;4.30;;
6131;SDS011;3097;42.692;23.278;2023-04-03T01:55:12;4.67;;;3.97;;
6131;SDS011;3097;42.692;23.278;2023-04-03T01:57:37;4.50;;;4.10;;
6131;SDS011;3097;42.692;23.278;2023-04-03T02:00:03;5.47;;;4.93;;
6131;SDS011;3097;42.692;23.278;2023-04-03T02:02:29;8.80;;;5.60;;
6131;SDS011;3097;42.692;23.278;2023-04-03T02:04:55;6.90;;;5.27;;
6131;SDS011;3097;42.692;23.278;2023-04-03T02:07:20;8.83;;;5.83;;
6131;SDS011;3097;42.692;23.278;2023-04-03T02:09:46;9.73;;;5.90;;
6131;SDS011;3097;42.692;23.278;2023-04-03T02:12:11;7.30;;;5.83;;
6131;SDS011;3097;42.692;23.278;2023-04-03T02:14:37;7.57;;;5.93;;
6131;SDS011;3097;42.692;23.278;2023-04-03T02:17:02;9.37;;;6.20;;
6131;SDS011;3097;42.692;23.278;2023-04-03T02:19:30;7.33;;;5.87;;
6131;SDS011;3097;42.692;23.278;2023-04-03T02:21:56;9.97;;;6.23;;
6131;SDS011;3097;42.692;23.278;2023-04-03T02:24:21;11.67;;;7.60;;
6131;SDS011;3097;42.692;23.278;2023-04-03T02:26:47;9.47;;;6.83;;
6131;SDS011;3097;42.692;23.278;2023-04-03T02:29:12;11.37;;;6.87;;
6131;SDS011;3097;42.692;23.278;2023-04-03T02:31:37;10.70;;;7.00;;
6131;SDS011;3097;42.692;23.278;2023-04-03T02:34:03;11.17;;;7.03;;
6131;SDS011;3097;42.692;23.278;2023-04-03T02:36:28;11.73;;;6.70;;
6131;SDS011;3097;42.692;23.278;2023-04-03T02:38:54;10.73;;;7.67;;
6131;SDS011;3097;42.692;23.278;2023-04-03T02:41:19;11.53;;;6.90;;
6131;SDS011;3097;42.692;23.278;2023-04-03T02:43:46;10.30;;;7.60;;
6131;SDS011;3097;42.692;23.278;2023-04-03T02:46:11;14.27;;;7.93;;
6131;SDS011;3097;42.692;23.278;2023-04-03T02:48:39;10.03;;;7.50;;
6131;SDS011;3097;42.692;23.278;2023-04-03T02:51:04;16.33;;;9.00;;
6131;SDS011;3097;42.692;23.278;2023-04-03T02:53:30;19.30;;;10.90;;
6131;SDS011;3097;42.692;23.278;2023-04-03T02:55:55;13.37;;;8.30;;
6131;SDS011;3097;42.692;23.278;2023-04-03T02:58:21;18.40;;;8.63;;
6131;SDS011;3097;42.692;23.278;2023-04-03T03:00:46;12.47;;;9.03;;
6131;SDS011;3097;42.692;23.278;2023-04-03T03:03:11;13.47;;;9.20;;
6131;SDS011;3097;42.692;23.278;2023-04-03T03:05:39;14.00;;;9.10;;
6131;SDS011;3097;42.692;23.278;2023-04-03T03:08:04;15.87;;;9.40;;
6131;SDS011;3097;42.692;23.278;2023-04-03T03:10:29;16.07;;;9.33;;
6131;SDS011;3097;42.692;23.278;2023-04-03T03:12:55;12.77;;;9.10;;
6131;SDS011;3097;42.692;23.278;2023-04-03T03:15:21;15.33;;;8.83;;
6131;SDS011;3097;42.692;23.278;2023-04-03T03:17:46;13.57;;;9.57;;
6131;SDS011;3097;42.692;23.278;2023-04-03T03:20:12;11.53;;;8.33;;
6131;SDS011;3097;42.692;23.278;2023-04-03T03:22:40;12.43;;;8.50;;
6131;SDS011;3097;42.692;23.278;2023-04-03T03:25:06;13.03;;;9.03;;
6131;SDS011;3097;42.692;23.278;2023-04-03T03:27:31;12.70;;;9.17;;
6131;SDS011;3097;42.692;23.278;2023-04-03T03:29:58;17.10;;;8.83;;
6131;SDS011;3097;42.692;23.278;2023-04-03T03:32:23;12.13;;;7.90;;
6131;SDS011;3097;42.692;23.278;2023-04-03T03:34:49;11.77;;;8.17;;
6131;SDS011;3097;42.692;23.278;2023-04-03T03:37:15;15.77;;;8.70;;
6131;SDS011;3097;42.692;23.278;2023-04-03T03:39:40;12.50;;;8.27;;
6131;SDS011;3097;42.692;23.278;2023-04-03T03:42:05;16.23;;;8.80;;
6131;SDS011;3097;42.692;23.278;2023-04-03T03:44:31;15.97;;;9.43;;
6131;SDS011;3097;42.692;23.278;2023-04-03T03:46:56;16.87;;;10.03;;
6131;SDS011;3097;42.692;23.278;2023-04-03T03:49:25;24.17;;;13.67;;
6131;SDS011;3097;42.692;23.278;2023-04-03T03:51:51;25.13;;;13.67;;
6131;SDS011;3097;42.692;23.278;2023-04-03T03:54:16;32.17;;;15.90;;
6131;SDS011;3097;42.692;23.278;2023-04-03T03:56:42;30.73;;;18.30;;
6131;SDS011;3097;42.692;23.278;2023-04-03T03:59:07;47.47;;;25.43;;
6131;SDS011;3097;42.692;23.278;2023-04-03T04:01:33;59.63;;;30.83;;
6131;SDS011;3097;42.692;23.278;2023-04-03T04:03:59;77.17;;;38.67;;
6131;SDS011;3097;42.692;23.278;2023-04-03T04:06:24;88.90;;;41.40;;
6131;SDS011;3097;42.692;23.278;2023-04-03T04:08:50;81.83;;;39.97;;
6131;SDS011;3097;42.692;23.278;2023-04-03T04:11:15;77.13;;;35.30;;
6131;SDS011;3097;42.692;23.278;2023-04-03T04:13:41;66.83;;;30.67;;
6131;SDS011;3097;42.692;23.278;2023-04-03T04:16:07;53.20;;;27.40;;
6131;SDS011;3097;42.692;23.278;2023-04-03T04:18:32;52.50;;;26.53;;
6131;SDS011;3097;42.692;23.278;2023-04-03T04:20:58;54.10;;;27.87;;
6131;SDS011;3097;42.692;23.278;2023-04-03T04:23:24;54.30;;;28.33;;
6131;SDS011;3097;42.692;23.278;2023-04-03T04:25:50;48.57;;;23.67;;
6131;SDS011;3097;42.692;23.278;2023-04-03T04:28:16;45.27;;;23.13;;
6131;SDS011;3097;42.692;23.278;2023-04-03T04:30:41;45.40;;;23.87;;
6131;SDS011;3097;42.692;23.278;2023-04-03T04:33:07;52.30;;;26.53;;
6131;SDS011;3097;42.692;23.278;2023-04-03T04:35:33;53.00;;;27.67;;
6131;SDS011;3097;42.692;23.278;2023-04-03T04:37:59;52.07;;;26.97;;
6131;SDS011;3097;42.692;23.278;2023-04-03T04:40:24;46.40;;;24.47;;
6131;SDS011;3097;42.692;23.278;2023-04-03T04:42:50;48.07;;;23.63;;
6131;SDS011;3097;42.692;23.278;2023-04-03T04:45:16;45.97;;;23.83;;
6131;SDS011;3097;42.692;23.278;2023-04-03T04:47:41;42.53;;;24.00;;
6131;SDS011;3097;42.692;23.278;2023-04-03T04:50:07;46.90;;;23.77;;
6131;SDS011;3097;42.692;23.278;2023-04-03T04:52:33;49.63;;;22.63;;
6131;SDS011;3097;42.692;23.278;2023-04-03T04:54:58;41.80;;;22.50;;
6131;SDS011;3097;42.692;23.278;2023-04-03T04:57:24;44.53;;;22.17;;
6131;SDS011;3097;42.692;23.278;2023-04-03T04:59:50;48.00;;;23.50;;
6131;SDS011;3097;42.692;23.278;2023-04-03T05:02:15;42.40;;;24.27;;
6131;SDS011;3097;42.692;23.278;2023-04-03T05:04:41;49.30;;;24.47;;
6131;SDS011;3097;42.692;23.278;2023-04-03T05:07:07;56.60;;;25.47;;
6131;SDS011;3097;42.692;23.278;2023-04-03T05:09:33;51.37;;;26.37;;
6131;SDS011;3097;42.692;23.278;2023-04-03T05:11:58;72.17;;;28.33;;
6131;SDS011;3097;42.692;23.278;2023-04-03T05:14:23;54.43;;;26.00;;
6131;SDS011;3097;42.692;23.278;2023-04-03T05:16:49;54.07;;;23.93;;
6131;SDS011;3097;42.692;23.278;2023-04-03T05:19:18;54.53;;;26.67;;
6131;SDS011;3097;42.692;23.278;2023-04-03T05:21:43;46.70;;;26.27;;
6131;SDS011;3097;42.692;23.278;2023-04-03T05:24:10;60.37;;;31.10;;
6131;SDS011;3097;42.692;23.278;2023-04-03T05:26:36;57.97;;;30.57;;
6131;SDS011;3097;42.692;23.278;2023-04-03T05:29:02;58.23;;;29.80;;
6131;SDS011;3097;42.692;23.278;2023-04-03T05:31:28;65.07;;;29.97;;
6131;SDS011;3097;42.692;23.278;2023-04-03T05:33:54;64.13;;;34.27;;
6131;SDS011;3097;42.692;23.278;2023-04-03T05:36:20;60.63;;;28.87;;
6131;SDS011;3097;42.692;23.278;2023-04-03T05:38:45;51.83;;;26.67;;
6131;SDS011;3097;42.692;23.278;2023-04-03T05:41:11;48.70;;;22.63;;
6131;SDS011;3097;42.692;23.278;2023-04-03T05:43:37;31.93;;;16.00;;
6131;SDS011;3097;42.692;23.278;2023-04-03T05:46:04;25.53;;;13.77;;
6131;SDS011;3097;42.692;23.278;2023-04-03T05:51:03;13.33;;;8.10;;
6131;SDS011;3097;42.692;23.278;2023-04-03T05:53:29;13.07;;;7.87;;
6131;SDS011;3097;42.692;23.278;2023-04-03T05:55:59;15.43;;;7.73;;
6131;SDS011;3097;42.692;23.278;2023-04-03T05:58:25;8.97;;;6.83;;
6131;SDS011;3097;42.692;23.278;2023-04-03T06:00:51;17.00;;;8.03;;
6131;SDS011;3097;42.692;23.278;2023-04-03T06:03:16;20.77;;;10.07;;
6131;SDS011;3097;42.692;23.278;2023-04-03T06:05:42;30.33;;;10.87;;
6131;SDS011;3097;42.692;23.278;2023-04-03T06:08:09;26.20;;;10.93;;
6131;SDS011;3097;42.692;23.278;2023-04-03T06:10:34;25.07;;;12.17;;
6131;SDS011;3097;42.692;23.278;2023-04-03T06:13:01;27.50;;;15.20;;
6131;SDS011;3097;42.692;23.278;2023-04-03T06:15:27;37.57;;;17.60;;
6131;SDS011;3097;42.692;23.278;2023-04-03T06:17:52;29.37;;;16.13;;
6131;SDS011;3097;42.692;23.278;2023-04-03T06:20:18;39.47;;;18.40;;
6131;SDS011;3097;42.692;23.278;2023-04-03T06:22:43;35.10;;;19.03;;
6131;SDS011;3097;42.692;23.278;2023-04-03T06:25:09;35.70;;;18.30;;
6131;SDS011;3097;42.692;23.278;2023-04-03T06:27:36;36.40;;;18.50;;
6131;SDS011;3097;42.692;23.278;2023-04-03T06:30:01;32.83;;;17.00;;
6131;SDS011;3097;42.692;23.278;2023-04-03T06:32:27;29.60;;;17.33;;
6131;SDS011;3097;42.692;23.278;2023-04-03T06:34:53;33.33;;;20.17;;
6131;SDS011;3097;42.692;23.278;2023-04-03T06:37:19;39.53;;;19.10;;
6131;SDS011;3097;42.692;23.278;2023-04-03T06:39:46;30.97;;;18.70;;
6131;SDS011;3097;42.692;23.278;2023-04-03T06:42:12;31.73;;;17.83;;
6131;SDS011;3097;42.692;23.278;2023-04-03T06:44:38;29.70;;;16.83;;
6131;SDS011;3097;42.692;23.278;2023-04-03T06:47:03;32.17;;;14.70;;
6131;SDS011;3097;42.692;23.278;2023-04-03T06:49:29;18.00;;;12.83;;
6131;SDS011;3097;42.692;23.278;2023-04-03T06:51:55;21.33;;;11.73;;
6131;SDS011;3097;42.692;23.278;2023-04-03T06:54:21;16.30;;;10.33;;
6131;SDS011;3097;42.692;23.278;2023-04-03T06:56:47;15.03;;;9.03;;
6131;SDS011;3097;42.692;23.278;2023-04-03T06:59:13;20.13;;;10.00;;
6131;SDS011;3097;42.692;23.278;2023-04-03T07:01:41;16.13;;;10.60;;
6131;SDS011;3097;42.692;23.278;2023-04-03T07:04:07;13.17;;;9.53;;
6131;SDS011;3097;42.692;23.278;2023-04-03T07:06:33;14.13;;;9.63;;
6131;SDS011;3097;42.692;23.278;2023-04-03T07:09:17;19.43;;;9.20;;
6131;SDS011;3097;42.692;23.278;2023-04-03T07:11:43;13.80;;;10.23;;
6131;SDS011;3097;42.692;23.278;2023-04-03T07:14:11;17.47;;;11.23;;
6131;SDS011;3097;42.692;23.278;2023-04-03T07:16:36;14.77;;;8.50;;
6131;SDS011;3097;42.692;23.278;2023-04-03T07:19:02;12.13;;;7.87;;
6131;SDS011;3097;42.692;23.278;2023-04-03T07:21:28;25.43;;;8.23;;
6131;SDS011;3097;42.692;23.278;2023-04-03T07:23:53;15.70;;;9.33;;
6131;SDS011;3097;42.692;23.278;2023-04-03T07:26:19;39.03;;;11.97;;
6131;SDS011;3097;42.692;23.278;2023-04-03T07:28:48;20.33;;;11.20;;
6131;SDS011;3097;42.692;23.278;2023-04-03T07:31:15;22.33;;;12.63;;
6131;SDS011;3097;42.692;23.278;2023-04-03T07:33:42;14.90;;;9.17;;
6131;SDS011;3097;42.692;23.278;2023-04-03T07:36:08;6.47;;;5.80;;
6131;SDS011;3097;42.692;23.278;2023-04-03T07:38:36;6.63;;;5.53;;
6131;SDS011;3097;42.692;23.278;2023-04-03T07:41:03;7.20;;;6.10;;
6131;SDS011;3097;42.692;23.278;2023-04-03T07:43:29;9.43;;;6.30;;
6131;SDS011;3097;42.692;23.278;2023-04-03T07:45:55;8.00;;;6.57;;
6131;SDS011;3097;42.692;23.278;2023-04-03T07:48:21;7.80;;;6.53;;
6131;SDS011;3097;42.692;23.278;2023-04-03T07:50:48;11.50;;;6.77;;
6131;SDS011;3097;42.692;23.278;2023-04-03T07:53:13;9.43;;;7.27;;
6131;SDS011;3097;42.692;23.278;2023-04-03T07:55:39;14.50;;;7.63;;
6131;SDS011;3097;42.692;23.278;2023-04-03T07:58:11;8.47;;;7.47;;
6131;SDS011;3097;42.692;23.278;2023-04-03T08:00:43;7.53;;;6.10;;
6131;SDS011;3097;42.692;23.278;2023-04-03T08:03:10;5.77;;;5.27;;
6131;SDS011;3097;42.692;23.278;2023-04-03T08:05:43;3.90;;;3.60;;
6131;SDS011;3097;42.692;23.278;2023-04-03T08:08:14;5.70;;;4.67;;
6131;SDS011;3097;42.692;23.278;2023-04-03T08:10:42;8.17;;;5.77;;
6131;SDS011;3097;42.692;23.278;2023-04-03T08:13:08;9.07;;;7.20;;
6131;SDS011;3097;42.692;23.278;2023-04-03T08:15:34;9.33;;;7.37;;
6131;SDS011;3097;42.692;23.278;2023-04-03T08:18:00;9.60;;;7.77;;
6131;SDS011;3097;42.692;23.278;2023-04-03T08:20:26;15.43;;;8.93;;
6131;SDS011;3097;42.692;23.278;2023-04-03T08:22:52;20.80;;;10.20;;
6131;SDS011;3097;42.692;23.278;2023-04-03T08:25:18;19.27;;;10.10;;
6131;SDS011;3097;42.692;23.278;2023-04-03T08:27:43;23.43;;;11.57;;
6131;SDS011;3097;42.692;23.278;2023-04-03T08:30:09;20.00;;;10.97;;
6131;SDS011;3097;42.692;23.278;2023-04-03T08:32:36;17.50;;;10.70;;
6131;SDS011;3097;42.692;23.278;2023-04-03T08:35:02;20.40;;;10.90;;
6131;SDS011;3097;42.692;23.278;2023-04-03T08:37:29;14.30;;;10.37;;
6131;SDS011;3097;42.692;23.278;2023-04-03T08:39:54;15.83;;;11.37;;
6131;SDS011;3097;42.692;23.278;2023-04-03T08:45:44;19.63;;;12.67;;
6131;SDS011;3097;42.692;23.278;2023-04-03T08:50:53;22.47;;;13.03;;
6131;SDS011;3097;42.692;23.278;2023-04-03T08:53:22;20.97;;;12.80;;
6131;SDS011;3097;42.692;23.278;2023-04-03T08:55:53;18.07;;;11.70;;
6131;SDS011;3097;42.692;23.278;2023-04-03T09:03:36;14.03;;;11.23;;
6131;SDS011;3097;42.692;23.278;2023-04-03T09:06:05;17.23;;;10.93;;
6131;SDS011;3097;42.692;23.278;2023-04-03T09:17:02;14.53;;;11.70;;
6131;SDS011;3097;42.692;23.278;2023-04-03T09:19:39;15.97;;;11.27;;
6131;SDS011;3097;42.692;23.278;2023-04-03T09:22:21;17.73;;;12.37;;
6131;SDS011;3097;42.692;23.278;2023-04-03T09:24:57;22.10;;;12.53;;
6131;SDS011;3097;42.692;23.278;2023-04-03T09:27:26;17.13;;;12.43;;
6131;SDS011;3097;42.692;23.278;2023-04-03T09:29:53;19.23;;;12.77;;
6131;SDS011;3097;42.692;23.278;2023-04-03T09:32:26;19.97;;;12.37;;
6131;SDS011;3097;42.692;23.278;2023-04-03T09:34:54;18.30;;;11.83;;
6131;SDS011;3097;42.692;23.278;2023-04-03T09:37:37;16.47;;;11.77;;
6131;SDS011;3097;42.692;23.278;2023-04-03T09:40:03;16.97;;;12.00;;
6131;SDS011;3097;42.692;23.278;2023-04-03T09:42:30;21.67;;;11.50;;
6131;SDS011;3097;42.692;23.278;2023-04-03T09:44:58;19.60;;;12.23;;
6131;SDS011;3097;42.692;23.278;2023-04-03T09:50:16;15.20;;;9.83;;
6131;SDS011;3097;42.692;23.278;2023-04-03T09:52:46;15.30;;;10.87;;
6131;SDS011;3097;42.692;23.278;2023-04-03T09:55:14;18.83;;;11.70;;
6131;SDS011;3097;42.692;23.278;2023-04-03T09:57:47;18.07;;;11.70;;
6131;SDS011;3097;42.692;23.278;2023-04-03T10:00:23;15.60;;;10.93;;
6131;SDS011;3097;42.692;23.278;2023-04-03T10:02:54;15.33;;;11.70;;
6131;SDS011;3097;42.692;23.278;2023-04-03T10:10:38;16.53;;;10.73;;
6131;SDS011;3097;42.692;23.278;2023-04-03T10:13:09;22.30;;;10.50;;
6131;SDS011;3097;42.692;23.278;2023-04-03T10:15:59;12.70;;;8.93;;
6131;SDS011;3097;42.692;23.278;2023-04-03T10:20:59;9.80;;;8.80;;
6131;SDS011;3097;42.692;23.278;2023-04-03T10:23:35;12.73;;;8.10;;
6131;SDS011;3097;42.692;23.278;2023-04-03T10:31:36;12.33;;;8.20;;
6131;SDS011;3097;42.692;23.278;2023-04-03T10:37:05;11.13;;;8.20;;
6131;SDS011;3097;42.692;23.278;2023-04-03T10:42:56;9.43;;;7.33;;
6131;SDS011;3097;42.692;23.278;2023-04-03T10:45:47;11.53;;;7.33;;
6131;SDS011;3097;42.692;23.278;2023-04-03T10:51:28;5.80;;;5.00;;
6131;SDS011;3097;42.692;23.278;2023-04-03T10:56:50;5.77;;;5.27;;
6131;SDS011;3097;42.692;23.278;2023-04-03T10:59:32;7.40;;;5.23;;
6131;SDS011;3097;42.692;23.278;2023-04-03T11:02:04;5.80;;;5.07;;
6131;SDS011;3097;42.692;23.278;2023-04-03T11:04:39;4.40;;;4.10;;
6131;SDS011;3097;42.692;23.278;2023-04-03T11:07:10;4.37;;;3.97;;
6131;SDS011;3097;42.692;23.278;2023-04-03T11:09:38;6.33;;;4.23;;
6131;SDS011;3097;42.692;23.278;2023-04-03T11:14:53;4.93;;;4.53;;
6131;SDS011;3097;42.692;23.278;2023-04-03T11:17:23;5.20;;;4.30;;
6131;SDS011;3097;42.692;23.278;2023-04-03T11:20:01;5.30;;;4.60;;
6131;SDS011;3097;42.692;23.278;2023-04-03T11:27:40;4.53;;;4.23;;
6131;SDS011;3097;42.692;23.278;2023-04-03T11:30:19;5.03;;;4.13;;
6131;SDS011;3097;42.692;23.278;2023-04-03T11:32:54;7.47;;;4.30;;
6131;SDS011;3097;42.692;23.278;2023-04-03T11:35:43;3.70;;;3.40;;
6131;SDS011;3097;42.692;23.278;2023-04-03T11:38:23;3.70;;;3.40;;
6131;SDS011;3097;42.692;23.278;2023-04-03T11:40:54;3.97;;;3.33;;
6131;SDS011;3097;42.692;23.278;2023-04-03T11:43:25;3.67;;;3.37;;
6131;SDS011;3097;42.692;23.278;2023-04-03T11:46:01;4.00;;;3.70;;
6131;SDS011;3097;42.692;23.278;2023-04-03T11:51:03;4.13;;;3.83;;
6131;SDS011;3097;42.692;23.278;2023-04-03T11:53:53;4.30;;;3.90;;
6131;SDS011;3097;42.692;23.278;2023-04-03T12:04:21;4.20;;;3.90;;
6131;SDS011;3097;42.692;23.278;2023-04-03T12:06:50;4.27;;;3.97;;
6131;SDS011;3097;42.692;23.278;2023-04-03T12:15:17;3.80;;;3.53;;
6131;SDS011;3097;42.692;23.278;2023-04-03T12:17:46;3.03;;;2.63;;
6131;SDS011;3097;42.692;23.278;2023-04-03T12:23:32;4.40;;;3.30;;
6131;SDS011;3097;42.692;23.278;2023-04-03T12:26:19;4.20;;;3.20;;
6131;SDS011;3097;42.692;23.278;2023-04-03T12:28:46;3.80;;;3.50;;
6131;SDS011;3097;42.692;23.278;2023-04-03T12:31:16;5.27;;;3.47;;
6131;SDS011;3097;42.692;23.278;2023-04-03T12:36:50;4.47;;;4.17;;
6131;SDS011;3097;42.692;23.278;2023-04-03T12:40:14;3.77;;;3.47;;
6131;SDS011;3097;42.692;23.278;2023-04-03T12:45:23;4.47;;;4.07;;
6131;SDS011;3097;42.692;23.278;2023-04-03T12:47:51;3.83;;;3.53;;
6131;SDS011;3097;42.692;23.278;2023-04-03T12:50:28;4.93;;;4.53;;
6131;SDS011;3097;42.692;23.278;2023-04-03T12:52:59;3.90;;;3.60;;
6131;SDS011;3097;42.692;23.278;2023-04-03T12:55:28;4.03;;;3.63;;
6131;SDS011;3097;42.692;23.278;2023-04-03T12:57:53;5.00;;;4.60;;
6131;SDS011;3097;42.692;23.278;2023-04-03T13:00:27;5.10;;;4.60;;
6131;SDS011;3097;42.692;23.278;2023-04-03T13:02:59;5.37;;;4.97;;
6131;SDS011;3097;42.692;23.278;2023-04-03T13:05:30;5.60;;;5.13;;
6131;SDS011;3097;42.692;23.278;2023-04-03T13:07:59;6.57;;;5.37;;
6131;SDS011;3097;42.692;23.278;2023-04-03T13:10:28;5.50;;;5.00;;
6131;SDS011;3097;42.692;23.278;2023-04-03T13:12:55;6.40;;;5.80;;
6131;SDS011;3097;42.692;23.278;2023-04-03T13:15:24;6.87;;;5.77;;
6131;SDS011;3097;42.692;23.278;2023-04-03T13:17:50;6.90;;;5.50;;
6131;SDS011;3097;42.692;23.278;2023-04-03T13:20:19;6.47;;;5.87;;
6131;SDS011;3097;42.692;23.278;2023-04-03T13:23:06;7.97;;;6.37;;
6131;SDS011;3097;42.692;23.278;2023-04-03T13:25:41;6.23;;;5.63;;
6131;SDS011;3097;42.692;23.278;2023-04-03T13:28:10;6.57;;;5.97;;
6131;SDS011;3097;42.692;23.278;2023-04-03T13:30:40;6.80;;;6.20;;
6131;SDS011;3097;42.692;23.278;2023-04-03T13:33:21;7.60;;;6.80;;
6131;SDS011;3097;42.692;23.278;2023-04-03T13:35:54;7.77;;;6.40;;
6131;SDS011;3097;42.692;23.278;2023-04-03T13:38:24;8.10;;;6.63;;
6131;SDS011;3097;42.692;23.278;2023-04-03T13:40:53;7.77;;;7.07;;
6131;SDS011;3097;42.692;23.278;2023-04-03T13:43:25;9.70;;;7.73;;
6131;SDS011;3097;42.692;23.278;2023-04-03T13:46:00;11.30;;;8.33;;
6131;SDS011;3097;42.692;23.278;2023-04-03T13:48:35;13.67;;;7.47;;
6131;SDS011;3097;42.692;23.278;2023-04-03T13:51:24;7.47;;;6.57;;
6131;SDS011;3097;42.692;23.278;2023-04-03T13:53:58;7.20;;;6.50;;
6131;SDS011;3097;42.692;23.278;2023-04-03T13:56:29;15.33;;;9.40;;
6131;SDS011;3097;42.692;23.278;2023-04-03T13:58:57;8.43;;;6.50;;
6131;SDS011;3097;42.692;23.278;2023-04-03T14:01:32;6.03;;;5.50;;
6131;SDS011;3097;42.692;23.278;2023-04-03T14:04:10;7.17;;;6.47;;
6131;SDS011;3097;42.692;23.278;2023-04-03T14:06:47;7.90;;;7.10;;
6131;SDS011;3097;42.692;23.278;2023-04-03T14:09:13;6.90;;;6.27;;
6131;SDS011;3097;42.692;23.278;2023-04-03T14:11:39;8.37;;;6.77;;
6131;SDS011;3097;42.692;23.278;2023-04-03T14:14:16;7.17;;;5.57;;
6131;SDS011;3097;42.692;23.278;2023-04-03T14:16:46;8.03;;;6.77;;
6131;SDS011;3097;42.692;23.278;2023-04-03T14:19:20;8.17;;;6.93;;
6131;SDS011;3097;42.692;23.278;2023-04-03T14:21:52;9.43;;;7.13;;
6131;SDS011;3097;42.692;23.278;2023-04-03T14:24:18;8.67;;;6.57;;
6131;SDS011;3097;42.692;23.278;2023-04-03T14:26:46;7.40;;;6.57;;
6131;SDS011;3097;42.692;23.278;2023-04-03T14:29:15;9.17;;;7.73;;
6131;SDS011;3097;42.692;23.278;2023-04-03T14:31:44;11.73;;;8.20;;
6131;SDS011;3097;42.692;23.278;2023-04-03T14:34:11;10.07;;;7.57;;
6131;SDS011;3097;42.692;23.278;2023-04-03T14:36:39;8.83;;;7.87;;
6131;SDS011;3097;42.692;23.278;2023-04-03T14:39:06;9.03;;;7.63;;
6131;SDS011;3097;42.692;23.278;2023-04-03T14:41:33;7.50;;;6.43;;
6131;SDS011;3097;42.692;23.278;2023-04-03T14:43:59;10.07;;;8.07;;
6131;SDS011;3097;42.692;23.278;2023-04-03T14:48:53;7.17;;;6.47;;
6131;SDS011;3097;42.692;23.278;2023-04-03T14:51:19;6.50;;;5.90;;
6131;SDS011;3097;42.692;23.278;2023-04-03T14:53:45;8.07;;;7.00;;
6131;SDS011;3097;42.692;23.278;2023-04-03T14:56:32;7.87;;;6.43;;
6131;SDS011;3097;42.692;23.278;2023-04-03T14:58:58;5.70;;;5.20;;
6131;SDS011;3097;42.692;23.278;2023-04-03T15:01:27;6.03;;;5.53;;
6131;SDS011;3097;42.692;23.278;2023-04-03T15:03:53;6.77;;;6.10;;
6131;SDS011;3097;42.692;23.278;2023-04-03T15:06:19;6.17;;;5.57;;
6131;SDS011;3097;42.692;23.278;2023-04-03T15:08:46;6.40;;;5.80;;
6131;SDS011;3097;42.692;23.278;2023-04-03T15:11:16;5.90;;;5.30;;
6131;SDS011;3097;42.692;23.278;2023-04-03T15:13:41;10.40;;;8.23;;
6131;SDS011;3097;42.692;23.278;2023-04-03T15:16:16;8.70;;;6.50;;
6131;SDS011;3097;42.692;23.278;2023-04-03T15:18:44;6.60;;;6.00;;
6131;SDS011;3097;42.692;23.278;2023-04-03T15:21:11;8.13;;;7.33;;
6131;SDS011;3097;42.692;23.278;2023-04-03T15:23:37;7.00;;;6.30;;
6131;SDS011;3097;42.692;23.278;2023-04-03T15:26:03;6.30;;;5.63;;
6131;SDS011;3097;42.692;23.278;2023-04-03T15:28:40;5.57;;;5.17;;
6131;SDS011;3097;42.692;23.278;2023-04-03T15:31:10;5.40;;;5.00;;
6131;SDS011;3097;42.692;23.278;2023-04-03T15:33:38;4.87;;;4.57;;
6131;SDS011;3097;42.692;23.278;2023-04-03T15:36:04;4.80;;;4.50;;
6131;SDS011;3097;42.692;23.278;2023-04-03T15:38:30;4.27;;;3.97;;
6131;SDS011;3097;42.692;23.278;2023-04-03T15:40:56;7.33;;;5.07;;
6131;SDS011;3097;42.692;23.278;2023-04-03T15:43:24;5.20;;;4.70;;
6131;SDS011;3097;42.692;23.278;2023-04-03T15:45:49;5.07;;;4.57;;
6131;SDS011;3097;42.692;23.278;2023-04-03T15:48:16;5.10;;;4.70;;
6131;SDS011;3097;42.692;23.278;2023-04-03T15:50:42;5.30;;;4.80;;
6131;SDS011;3097;42.692;23.278;2023-04-03T15:53:08;5.67;;;4.63;;
6131;SDS011;3097;42.692;23.278;2023-04-03T15:55:35;4.10;;;3.70;;
6131;SDS011;3097;42.692;23.278;2023-04-03T15:58:01;4.50;;;4.20;;
6131;SDS011;3097;42.692;23.278;2023-04-03T16:00:27;3.90;;;3.60;;
6131;SDS011;3097;42.692;23.278;2023-04-03T16:03:01;4.43;;;4.13;;
6131;SDS011;3097;42.692;23.278;2023-04-03T16:05:30;4.50;;;4.10;;
6131;SDS011;3097;42.692;23.278;2023-04-03T16:07:56;5.13;;;4.70;;
6131;SDS011;3097;42.692;23.278;2023-04-03T16:10:25;4.23;;;3.93;;
6131;SDS011;3097;42.692;23.278;2023-04-03T16:12:51;4.80;;;4.40;;
6131;SDS011;3097;42.692;23.278;2023-04-03T16:15:16;4.87;;;4.50;;
6131;SDS011;3097;42.692;23.278;2023-04-03T16:17:42;6.03;;;5.07;;
6131;SDS011;3097;42.692;23.278;2023-04-03T16:20:08;4.80;;;4.40;;
6131;SDS011;3097;42.692;23.278;2023-04-03T16:22:35;5.80;;;5.20;;
6131;SDS011;3097;42.692;23.278;2023-04-03T16:25:02;5.57;;;4.97;;
6131;SDS011;3097;42.692;23.278;2023-04-03T16:27:28;5.63;;;4.97;;
6131;SDS011;3097;42.692;23.278;2023-04-03T16:29:56;5.97;;;5.47;;
6131;SDS011;3097;42.692;23.278;2023-04-03T16:32:22;7.80;;;6.13;;
6131;SDS011;3097;42.692;23.278;2023-04-03T16:34:51;6.70;;;6.00;;
6131;SDS011;3097;42.692;23.278;2023-04-03T16:37:20;6.73;;;6.13;;